sensor_id;sensor_type;location;lat;lon;timestamp;P1;durP1;ratioP1;P2;durP2;ratioP2
40983;SDS011;26714;51.332;12.406;2023-06-22T00:00:40;10.88;;;7.15;;
40983;SDS011;26714;51.332;12.406;2023-06-22T00:03:07;11.48;;;8.05;;
40983;SDS011;26714;51.332;12.406;2023-06-22T00:05:33;12.05;;;8.18;;
40983;SDS011;26714;51.332;12.406;2023-06-22T00:08:01;10.65;;;7.35;;
40983;SDS011;26714;51.332;12.406;2023-06-22T00:10:27;13.98;;;8.02;;
40983;SDS011;26714;51.332;12.406;2023-06-22T00:12:52;12.82;;;8.18;;
40983;SDS011;26714;51.332;12.406;2023-06-22T00:15:18;10.38;;;7.35;;
40983;SDS011;26714;51.332;12.406;2023-06-22T00:17:43;14.13;;;7.80;;
40983;SDS011;26714;51.332;12.406;2023-06-22T00:20:09;16.67;;;9.90;;
40983;SDS011;26714;51.332;12.406;2023-06-22T00:22:35;13.13;;;9.10;;
40983;SDS011;26714;51.332;12.406;2023-06-22T00:25:05;10.80;;;8.05;;
40983;SDS011;26714;51.332;12.406;2023-06-22T00:27:31;10.15;;;7.50;;
40983;SDS011;26714;51.332;12.406;2023-06-22T00:29:56;10.48;;;7.32;;
40983;SDS011;26714;51.332;12.406;2023-06-22T00:32:22;11.65;;;8.57;;
40983;SDS011;26714;51.332;12.406;2023-06-22T00:34:47;13.68;;;7.80;;
40983;SDS011;26714;51.332;12.406;2023-06-22T00:37:13;11.80;;;7.75;;
40983;SDS011;26714;51.332;12.406;2023-06-22T00:39:42;11.25;;;7.88;;
40983;SDS011;26714;51.332;12.406;2023-06-22T00:42:07;10.77;;;8.02;;
40983;SDS011;26714;51.332;12.406;2023-06-22T00:44:33;10.82;;;7.93;;
40983;SDS011;26714;51.332;12.406;2023-06-22T00:46:58;11.20;;;8.13;;
40983;SDS011;26714;51.332;12.406;2023-06-22T00:49:26;11.30;;;8.15;;
40983;SDS011;26714;51.332;12.406;2023-06-22T00:51:51;11.15;;;8.07;;
40983;SDS011;26714;51.332;12.406;2023-06-22T00:54:17;10.52;;;7.90;;
40983;SDS011;26714;51.332;12.406;2023-06-22T00:56:51;11.27;;;8.00;;
40983;SDS011;26714;51.332;12.406;2023-06-22T00:59:17;10.88;;;7.80;;
40983;SDS011;26714;51.332;12.406;2023-06-22T01:01:44;11.05;;;7.60;;
40983;SDS011;26714;51.332;12.406;2023-06-22T01:04:09;11.20;;;8.45;;
40983;SDS011;26714;51.332;12.406;2023-06-22T01:06:42;12.13;;;7.82;;
40983;SDS011;26714;51.332;12.406;2023-06-22T01:09:18;10.63;;;7.65;;
40983;SDS011;26714;51.332;12.406;2023-06-22T01:11:45;9.95;;;7.40;;
40983;SDS011;26714;51.332;12.406;2023-06-22T01:14:15;14.60;;;7.90;;
40983;SDS011;26714;51.332;12.406;2023-06-22T01:16:42;10.30;;;7.30;;
40983;SDS011;26714;51.332;12.406;2023-06-22T01:22:07;10.48;;;7.45;;
40983;SDS011;26714;51.332;12.406;2023-06-22T01:29:48;12.15;;;7.68;;
40983;SDS011;26714;51.332;12.406;2023-06-22T01:32:14;13.35;;;8.27;;
40983;SDS011;26714;51.332;12.406;2023-06-22T01:34:40;11.13;;;7.47;;
40983;SDS011;26714;51.332;12.406;2023-06-22T01:37:07;11.38;;;8.02;;
40983;SDS011;26714;51.332;12.406;2023-06-22T01:39:32;10.50;;;8.00;;
40983;SDS011;26714;51.332;12.406;2023-06-22T01:41:59;12.50;;;8.13;;
40983;SDS011;26714;51.332;12.406;2023-06-22T01:44:25;11.95;;;7.90;;
40983;SDS011;26714;51.332;12.406;2023-06-22T01:46:51;12.23;;;8.25;;
40983;SDS011;26714;51.332;12.406;2023-06-22T01:49:17;12.20;;;8.80;;
40983;SDS011;26714;51.332;12.406;2023-06-22T01:51:43;11.52;;;9.20;;
40983;SDS011;26714;51.332;12.406;2023-06-22T01:54:09;12.00;;;8.02;;
40983;SDS011;26714;51.332;12.406;2023-06-22T01:56:34;10.98;;;8.63;;
40983;SDS011;26714;51.332;12.406;2023-06-22T01:59:11;12.52;;;8.35;;
40983;SDS011;26714;51.332;12.406;2023-06-22T02:01:44;12.55;;;8.05;;
40983;SDS011;26714;51.332;12.406;2023-06-22T02:04:18;11.20;;;8.48;;
40983;SDS011;26714;51.332;12.406;2023-06-22T02:06:45;12.98;;;8.52;;
40983;SDS011;26714;51.332;12.406;2023-06-22T02:09:12;13.35;;;9.13;;
40983;SDS011;26714;51.332;12.406;2023-06-22T02:11:40;13.50;;;8.53;;
40983;SDS011;26714;51.332;12.406;2023-06-22T02:14:06;15.30;;;8.55;;
40983;SDS011;26714;51.332;12.406;2023-06-22T02:16:32;12.65;;;8.68;;
40983;SDS011;26714;51.332;12.406;2023-06-22T02:18:58;12.40;;;8.23;;
40983;SDS011;26714;51.332;12.406;2023-06-22T02:21:28;10.80;;;8.30;;
40983;SDS011;26714;51.332;12.406;2023-06-22T02:23:54;12.45;;;8.52;;
40983;SDS011;26714;51.332;12.406;2023-06-22T02:26:19;11.90;;;8.27;;
40983;SDS011;26714;51.332;12.406;2023-06-22T02:28:45;12.05;;;8.95;;
40983;SDS011;26714;51.332;12.406;2023-06-22T02:31:11;13.68;;;8.38;;
40983;SDS011;26714;51.332;12.406;2023-06-22T02:33:36;12.32;;;8.48;;
40983;SDS011;26714;51.332;12.406;2023-06-22T02:36:02;12.07;;;8.80;;
40983;SDS011;26714;51.332;12.406;2023-06-22T02:38:31;11.65;;;8.95;;
40983;SDS011;26714;51.332;12.406;2023-06-22T02:40:59;13.57;;;9.20;;
40983;SDS011;26714;51.332;12.406;2023-06-22T02:43:24;11.90;;;8.80;;
40983;SDS011;26714;51.332;12.406;2023-06-22T02:45:50;16.92;;;11.48;;
40983;SDS011;26714;51.332;12.406;2023-06-22T02:48:15;13.55;;;9.63;;
40983;SDS011;26714;51.332;12.406;2023-06-22T02:50:41;12.38;;;7.93;;
40983;SDS011;26714;51.332;12.406;2023-06-22T02:53:07;13.13;;;9.45;;
40983;SDS011;26714;51.332;12.406;2023-06-22T02:55:36;26.17;;;18.25;;
40983;SDS011;26714;51.332;12.406;2023-06-22T02:58:01;17.15;;;12.25;;
40983;SDS011;26714;51.332;12.406;2023-06-22T03:00:32;23.80;;;15.23;;
40983;SDS011;26714;51.332;12.406;2023-06-22T03:02:58;19.55;;;9.98;;
40983;SDS011;26714;51.332;12.406;2023-06-22T03:05:23;14.73;;;8.50;;
40983;SDS011;26714;51.332;12.406;2023-06-22T03:07:49;15.02;;;8.65;;
40983;SDS011;26714;51.332;12.406;2023-06-22T03:10:15;13.55;;;8.73;;
40983;SDS011;26714;51.332;12.406;2023-06-22T03:12:41;13.18;;;9.35;;
40983;SDS011;26714;51.332;12.406;2023-06-22T03:15:08;16.50;;;10.07;;
40983;SDS011;26714;51.332;12.406;2023-06-22T03:17:34;14.95;;;9.82;;
40983;SDS011;26714;51.332;12.406;2023-06-22T03:20:00;10.48;;;8.35;;
40983;SDS011;26714;51.332;12.406;2023-06-22T03:22:26;12.05;;;8.93;;
40983;SDS011;26714;51.332;12.406;2023-06-22T03:24:51;13.13;;;9.40;;
40983;SDS011;26714;51.332;12.406;2023-06-22T03:27:17;17.45;;;8.95;;
40983;SDS011;26714;51.332;12.406;2023-06-22T03:29:43;18.67;;;11.27;;
40983;SDS011;26714;51.332;12.406;2023-06-22T03:32:10;11.93;;;8.85;;
40983;SDS011;26714;51.332;12.406;2023-06-22T03:34:36;14.00;;;9.27;;
40983;SDS011;26714;51.332;12.406;2023-06-22T03:37:01;14.15;;;9.00;;
40983;SDS011;26714;51.332;12.406;2023-06-22T03:39:27;14.95;;;9.63;;
40983;SDS011;26714;51.332;12.406;2023-06-22T03:41:52;13.98;;;9.27;;
40983;SDS011;26714;51.332;12.406;2023-06-22T03:44:18;13.27;;;9.35;;
40983;SDS011;26714;51.332;12.406;2023-06-22T03:46:43;15.65;;;9.63;;
40983;SDS011;26714;51.332;12.406;2023-06-22T03:49:09;15.07;;;10.43;;
40983;SDS011;26714;51.332;12.406;2023-06-22T03:51:34;18.52;;;10.85;;
40983;SDS011;26714;51.332;12.406;2023-06-22T03:54:00;18.80;;;9.95;;
40983;SDS011;26714;51.332;12.406;2023-06-22T03:56:25;19.05;;;10.40;;
40983;SDS011;26714;51.332;12.406;2023-06-22T03:58:51;17.10;;;10.75;;
40983;SDS011;26714;51.332;12.406;2023-06-22T04:01:16;14.48;;;9.43;;
40983;SDS011;26714;51.332;12.406;2023-06-22T04:03:42;17.60;;;9.82;;
40983;SDS011;26714;51.332;12.406;2023-06-22T04:06:08;16.00;;;9.98;;
40983;SDS011;26714;51.332;12.406;2023-06-22T04:08:34;19.85;;;11.15;;
40983;SDS011;26714;51.332;12.406;2023-06-22T04:10:59;20.42;;;10.52;;
40983;SDS011;26714;51.332;12.406;2023-06-22T04:13:25;17.55;;;10.63;;
40983;SDS011;26714;51.332;12.406;2023-06-22T04:15:50;18.33;;;10.48;;
40983;SDS011;26714;51.332;12.406;2023-06-22T04:18:16;16.60;;;11.02;;
40983;SDS011;26714;51.332;12.406;2023-06-22T04:20:41;16.00;;;10.95;;
40983;SDS011;26714;51.332;12.406;2023-06-22T04:23:07;17.45;;;10.45;;
40983;SDS011;26714;51.332;12.406;2023-06-22T04:25:32;15.70;;;10.07;;
40983;SDS011;26714;51.332;12.406;2023-06-22T04:27:58;15.50;;;11.57;;
40983;SDS011;26714;51.332;12.406;2023-06-22T04:30:23;16.13;;;11.10;;
40983;SDS011;26714;51.332;12.406;2023-06-22T04:32:49;15.68;;;10.77;;
40983;SDS011;26714;51.332;12.406;2023-06-22T04:35:21;14.90;;;10.82;;
40983;SDS011;26714;51.332;12.406;2023-06-22T04:37:47;20.08;;;11.45;;
40983;SDS011;26714;51.332;12.406;2023-06-22T04:40:14;16.25;;;10.93;;
40983;SDS011;26714;51.332;12.406;2023-06-22T04:42:40;20.83;;;11.93;;
40983;SDS011;26714;51.332;12.406;2023-06-22T04:45:06;17.33;;;11.55;;
40983;SDS011;26714;51.332;12.406;2023-06-22T04:47:31;16.55;;;11.10;;
40983;SDS011;26714;51.332;12.406;2023-06-22T04:49:57;18.73;;;11.45;;
40983;SDS011;26714;51.332;12.406;2023-06-22T04:52:23;21.42;;;11.75;;
40983;SDS011;26714;51.332;12.406;2023-06-22T04:54:50;18.95;;;11.60;;
40983;SDS011;26714;51.332;12.406;2023-06-22T04:57:20;18.42;;;11.43;;
40983;SDS011;26714;51.332;12.406;2023-06-22T04:59:46;20.10;;;13.27;;
40983;SDS011;26714;51.332;12.406;2023-06-22T05:02:12;19.50;;;12.38;;
40983;SDS011;26714;51.332;12.406;2023-06-22T05:04:37;18.48;;;12.20;;
40983;SDS011;26714;51.332;12.406;2023-06-22T05:07:06;21.13;;;13.07;;
40983;SDS011;26714;51.332;12.406;2023-06-22T05:09:32;17.50;;;13.05;;
40983;SDS011;26714;51.332;12.406;2023-06-22T05:11:59;20.20;;;11.57;;
40983;SDS011;26714;51.332;12.406;2023-06-22T05:14:27;22.13;;;12.95;;
40983;SDS011;26714;51.332;12.406;2023-06-22T05:16:52;17.50;;;12.68;;
40983;SDS011;26714;51.332;12.406;2023-06-22T05:19:18;17.27;;;12.90;;
40983;SDS011;26714;51.332;12.406;2023-06-22T05:21:43;18.60;;;11.48;;
40983;SDS011;26714;51.332;12.406;2023-06-22T05:24:09;17.45;;;10.95;;
40983;SDS011;26714;51.332;12.406;2023-06-22T05:26:35;18.23;;;11.48;;
40983;SDS011;26714;51.332;12.406;2023-06-22T05:29:00;19.60;;;11.70;;
40983;SDS011;26714;51.332;12.406;2023-06-22T05:31:26;18.30;;;11.95;;
40983;SDS011;26714;51.332;12.406;2023-06-22T05:33:53;18.85;;;11.63;;
40983;SDS011;26714;51.332;12.406;2023-06-22T05:36:19;23.30;;;11.98;;
40983;SDS011;26714;51.332;12.406;2023-06-22T05:38:51;21.25;;;12.32;;
40983;SDS011;26714;51.332;12.406;2023-06-22T05:41:17;16.67;;;11.32;;
40983;SDS011;26714;51.332;12.406;2023-06-22T05:43:42;17.35;;;11.35;;
40983;SDS011;26714;51.332;12.406;2023-06-22T05:46:08;18.27;;;10.88;;
40983;SDS011;26714;51.332;12.406;2023-06-22T05:48:33;20.83;;;11.25;;
40983;SDS011;26714;51.332;12.406;2023-06-22T05:50:59;17.83;;;11.23;;
40983;SDS011;26714;51.332;12.406;2023-06-22T05:53:24;17.98;;;12.88;;
40983;SDS011;26714;51.332;12.406;2023-06-22T05:55:50;18.67;;;11.05;;
40983;SDS011;26714;51.332;12.406;2023-06-22T05:58:15;22.45;;;11.35;;
40983;SDS011;26714;51.332;12.406;2023-06-22T06:00:41;22.02;;;11.95;;
40983;SDS011;26714;51.332;12.406;2023-06-22T06:03:07;19.63;;;11.15;;
40983;SDS011;26714;51.332;12.406;2023-06-22T06:05:33;20.20;;;10.25;;
40983;SDS011;26714;51.332;12.406;2023-06-22T06:08:03;16.83;;;10.90;;
40983;SDS011;26714;51.332;12.406;2023-06-22T06:10:30;16.98;;;10.73;;
40983;SDS011;26714;51.332;12.406;2023-06-22T06:12:56;19.20;;;10.73;;
40983;SDS011;26714;51.332;12.406;2023-06-22T06:15:21;16.05;;;10.23;;
40983;SDS011;26714;51.332;12.406;2023-06-22T06:20:13;17.73;;;10.00;;
40983;SDS011;26714;51.332;12.406;2023-06-22T06:22:38;16.75;;;9.77;;
40983;SDS011;26714;51.332;12.406;2023-06-22T06:25:05;13.35;;;9.40;;
40983;SDS011;26714;51.332;12.406;2023-06-22T06:27:30;15.38;;;9.25;;
40983;SDS011;26714;51.332;12.406;2023-06-22T06:29:56;15.38;;;9.23;;
40983;SDS011;26714;51.332;12.406;2023-06-22T06:32:21;14.38;;;8.75;;
40983;SDS011;26714;51.332;12.406;2023-06-22T06:34:47;11.45;;;7.95;;
40983;SDS011;26714;51.332;12.406;2023-06-22T06:37:13;13.35;;;7.85;;
40983;SDS011;26714;51.332;12.406;2023-06-22T06:39:38;13.50;;;8.48;;
40983;SDS011;26714;51.332;12.406;2023-06-22T06:42:04;16.83;;;9.05;;
40983;SDS011;26714;51.332;12.406;2023-06-22T06:44:30;14.48;;;8.25;;
40983;SDS011;26714;51.332;12.406;2023-06-22T06:46:55;12.38;;;8.73;;
40983;SDS011;26714;51.332;12.406;2023-06-22T06:49:21;10.90;;;7.65;;
40983;SDS011;26714;51.332;12.406;2023-06-22T06:51:46;12.57;;;7.47;;
40983;SDS011;26714;51.332;12.406;2023-06-22T06:54:12;14.23;;;7.75;;
40983;SDS011;26714;51.332;12.406;2023-06-22T06:56:37;11.65;;;8.43;;
40983;SDS011;26714;51.332;12.406;2023-06-22T06:59:03;12.85;;;7.95;;
40983;SDS011;26714;51.332;12.406;2023-06-22T07:01:28;12.65;;;8.73;;
40983;SDS011;26714;51.332;12.406;2023-06-22T07:03:59;10.90;;;8.02;;
40983;SDS011;26714;51.332;12.406;2023-06-22T07:06:24;14.38;;;8.55;;
40983;SDS011;26714;51.332;12.406;2023-06-22T07:08:54;12.52;;;7.32;;
40983;SDS011;26714;51.332;12.406;2023-06-22T07:11:20;11.20;;;7.78;;
40983;SDS011;26714;51.332;12.406;2023-06-22T07:13:45;10.63;;;6.78;;
40983;SDS011;26714;51.332;12.406;2023-06-22T07:16:11;10.50;;;6.95;;
40983;SDS011;26714;51.332;12.406;2023-06-22T07:18:39;10.60;;;7.20;;
40983;SDS011;26714;51.332;12.406;2023-06-22T07:21:05;10.23;;;6.90;;
40983;SDS011;26714;51.332;12.406;2023-06-22T07:23:32;12.07;;;7.53;;
40983;SDS011;26714;51.332;12.406;2023-06-22T07:25:57;15.63;;;7.70;;
40983;SDS011;26714;51.332;12.406;2023-06-22T07:28:23;14.70;;;8.07;;
40983;SDS011;26714;51.332;12.406;2023-06-22T07:30:48;10.63;;;7.00;;
40983;SDS011;26714;51.332;12.406;2023-06-22T07:33:16;11.65;;;7.45;;
40983;SDS011;26714;51.332;12.406;2023-06-22T07:35:42;10.82;;;7.28;;
40983;SDS011;26714;51.332;12.406;2023-06-22T07:38:08;12.68;;;7.53;;
40983;SDS011;26714;51.332;12.406;2023-06-22T07:40:34;10.35;;;7.55;;
40983;SDS011;26714;51.332;12.406;2023-06-22T07:43:00;14.60;;;7.65;;
40983;SDS011;26714;51.332;12.406;2023-06-22T07:45:26;13.20;;;7.63;;
40983;SDS011;26714;51.332;12.406;2023-06-22T07:47:51;9.88;;;7.25;;
40983;SDS011;26714;51.332;12.406;2023-06-22T07:50:17;10.90;;;7.28;;
40983;SDS011;26714;51.332;12.406;2023-06-22T07:52:42;14.00;;;7.82;;
40983;SDS011;26714;51.332;12.406;2023-06-22T07:55:08;10.75;;;7.40;;
40983;SDS011;26714;51.332;12.406;2023-06-22T07:57:33;14.30;;;7.70;;
40983;SDS011;26714;51.332;12.406;2023-06-22T07:59:59;9.38;;;7.32;;
40983;SDS011;26714;51.332;12.406;2023-06-22T08:02:25;15.02;;;8.35;;
40983;SDS011;26714;51.332;12.406;2023-06-22T08:04:51;11.43;;;7.57;;
40983;SDS011;26714;51.332;12.406;2023-06-22T08:07:17;13.48;;;7.40;;
40983;SDS011;26714;51.332;12.406;2023-06-22T08:09:48;11.35;;;7.45;;
40983;SDS011;26714;51.332;12.406;2023-06-22T08:12:14;14.20;;;7.88;;
40983;SDS011;26714;51.332;12.406;2023-06-22T08:14:41;13.23;;;7.90;;
40983;SDS011;26714;51.332;12.406;2023-06-22T08:17:07;11.67;;;7.83;;
40983;SDS011;26714;51.332;12.406;2023-06-22T08:19:33;15.50;;;7.45;;
40983;SDS011;26714;51.332;12.406;2023-06-22T08:21:58;10.23;;;7.13;;
40983;SDS011;26714;51.332;12.406;2023-06-22T08:24:24;9.95;;;7.60;;
40983;SDS011;26714;51.332;12.406;2023-06-22T08:26:51;12.10;;;7.25;;
40983;SDS011;26714;51.332;12.406;2023-06-22T08:29:16;12.18;;;7.50;;
40983;SDS011;26714;51.332;12.406;2023-06-22T08:31:42;14.20;;;7.57;;
40983;SDS011;26714;51.332;12.406;2023-06-22T08:34:07;13.15;;;7.55;;
40983;SDS011;26714;51.332;12.406;2023-06-22T08:36:33;10.73;;;6.75;;
40983;SDS011;26714;51.332;12.406;2023-06-22T08:39:07;9.43;;;7.15;;
40983;SDS011;26714;51.332;12.406;2023-06-22T08:41:33;10.55;;;7.13;;
40983;SDS011;26714;51.332;12.406;2023-06-22T08:43:59;12.02;;;7.20;;
40983;SDS011;26714;51.332;12.406;2023-06-22T08:46:24;13.60;;;7.70;;
40983;SDS011;26714;51.332;12.406;2023-06-22T08:48:56;12.43;;;6.57;;
40983;SDS011;26714;51.332;12.406;2023-06-22T08:51:23;10.23;;;7.27;;
40983;SDS011;26714;51.332;12.406;2023-06-22T08:53:48;10.73;;;6.97;;
40983;SDS011;26714;51.332;12.406;2023-06-22T08:56:14;11.52;;;6.95;;
40983;SDS011;26714;51.332;12.406;2023-06-22T08:58:39;8.25;;;6.43;;
40983;SDS011;26714;51.332;12.406;2023-06-22T09:01:05;8.93;;;6.63;;
40983;SDS011;26714;51.332;12.406;2023-06-22T09:03:30;10.60;;;6.65;;
40983;SDS011;26714;51.332;12.406;2023-06-22T09:05:58;8.25;;;6.15;;
40983;SDS011;26714;51.332;12.406;2023-06-22T09:08:23;9.63;;;6.90;;
40983;SDS011;26714;51.332;12.406;2023-06-22T09:10:52;8.35;;;5.85;;
40983;SDS011;26714;51.332;12.406;2023-06-22T09:13:17;11.20;;;6.68;;
40983;SDS011;26714;51.332;12.406;2023-06-22T09:15:43;8.52;;;6.72;;
40983;SDS011;26714;51.332;12.406;2023-06-22T09:18:12;10.60;;;6.15;;
40983;SDS011;26714;51.332;12.406;2023-06-22T09:20:38;10.48;;;6.50;;
40983;SDS011;26714;51.332;12.406;2023-06-22T09:23:04;9.75;;;6.82;;
40983;SDS011;26714;51.332;12.406;2023-06-22T09:25:29;8.45;;;5.95;;
40983;SDS011;26714;51.332;12.406;2023-06-22T09:27:55;11.70;;;6.13;;
40983;SDS011;26714;51.332;12.406;2023-06-22T09:30:21;7.93;;;5.68;;
40983;SDS011;26714;51.332;12.406;2023-06-22T09:32:46;10.77;;;5.95;;
40983;SDS011;26714;51.332;12.406;2023-06-22T09:35:12;7.68;;;5.47;;
40983;SDS011;26714;51.332;12.406;2023-06-22T09:37:39;6.95;;;5.35;;
40983;SDS011;26714;51.332;12.406;2023-06-22T09:40:05;11.18;;;5.68;;
40983;SDS011;26714;51.332;12.406;2023-06-22T09:42:35;8.55;;;5.25;;
40983;SDS011;26714;51.332;12.406;2023-06-22T09:45:01;8.95;;;5.35;;
40983;SDS011;26714;51.332;12.406;2023-06-22T09:47:27;6.30;;;5.43;;
40983;SDS011;26714;51.332;12.406;2023-06-22T09:49:53;8.93;;;5.57;;
40983;SDS011;26714;51.332;12.406;2023-06-22T09:52:21;7.13;;;5.30;;
40983;SDS011;26714;51.332;12.406;2023-06-22T09:54:46;8.40;;;4.97;;
40983;SDS011;26714;51.332;12.406;2023-06-22T09:57:12;10.52;;;5.55;;
40983;SDS011;26714;51.332;12.406;2023-06-22T09:59:38;12.48;;;5.63;;
40983;SDS011;26714;51.332;12.406;2023-06-22T10:02:05;6.82;;;5.18;;
40983;SDS011;26714;51.332;12.406;2023-06-22T10:04:31;10.05;;;5.22;;
40983;SDS011;26714;51.332;12.406;2023-06-22T10:06:56;9.32;;;5.55;;
40983;SDS011;26714;51.332;12.406;2023-06-22T10:09:22;9.25;;;5.78;;
40983;SDS011;26714;51.332;12.406;2023-06-22T10:11:47;8.10;;;5.43;;
40983;SDS011;26714;51.332;12.406;2023-06-22T10:14:13;10.88;;;6.30;;
40983;SDS011;26714;51.332;12.406;2023-06-22T10:16:39;8.02;;;5.20;;
40983;SDS011;26714;51.332;12.406;2023-06-22T10:19:06;8.73;;;4.90;;
40983;SDS011;26714;51.332;12.406;2023-06-22T10:21:31;10.65;;;5.53;;
40983;SDS011;26714;51.332;12.406;2023-06-22T10:23:58;6.85;;;4.35;;
40983;SDS011;26714;51.332;12.406;2023-06-22T10:26:24;16.83;;;5.63;;
40983;SDS011;26714;51.332;12.406;2023-06-22T10:28:50;12.02;;;5.32;;
40983;SDS011;26714;51.332;12.406;2023-06-22T10:31:15;8.00;;;5.80;;
40983;SDS011;26714;51.332;12.406;2023-06-22T10:33:42;8.63;;;5.32;;
40983;SDS011;26714;51.332;12.406;2023-06-22T10:36:10;7.30;;;4.80;;
40983;SDS011;26714;51.332;12.406;2023-06-22T10:38:36;8.85;;;4.90;;
40983;SDS011;26714;51.332;12.406;2023-06-22T10:41:01;7.90;;;5.38;;
40983;SDS011;26714;51.332;12.406;2023-06-22T10:43:27;9.48;;;5.47;;
40983;SDS011;26714;51.332;12.406;2023-06-22T10:45:53;8.80;;;5.30;;
40983;SDS011;26714;51.332;12.406;2023-06-22T10:48:18;7.60;;;5.28;;
40983;SDS011;26714;51.332;12.406;2023-06-22T10:50:44;7.05;;;4.78;;
40983;SDS011;26714;51.332;12.406;2023-06-22T10:53:09;6.95;;;5.20;;
40983;SDS011;26714;51.332;12.406;2023-06-22T10:55:35;9.00;;;5.13;;
40983;SDS011;26714;51.332;12.406;2023-06-22T10:58:00;6.43;;;4.70;;
40983;SDS011;26714;51.332;12.406;2023-06-22T11:00:26;9.77;;;5.03;;
40983;SDS011;26714;51.332;12.406;2023-06-22T11:02:52;9.27;;;5.05;;
40983;SDS011;26714;51.332;12.406;2023-06-22T11:05:17;7.60;;;5.25;;
40983;SDS011;26714;51.332;12.406;2023-06-22T11:07:43;6.78;;;4.85;;
40983;SDS011;26714;51.332;12.406;2023-06-22T11:10:09;5.70;;;4.45;;
40983;SDS011;26714;51.332;12.406;2023-06-22T11:12:35;7.85;;;5.05;;
40983;SDS011;26714;51.332;12.406;2023-06-22T11:15:01;7.95;;;5.30;;
40983;SDS011;26714;51.332;12.406;2023-06-22T11:17:26;13.32;;;5.15;;
40983;SDS011;26714;51.332;12.406;2023-06-22T11:19:52;8.98;;;5.22;;
40983;SDS011;26714;51.332;12.406;2023-06-22T11:22:18;7.72;;;5.32;;
40983;SDS011;26714;51.332;12.406;2023-06-22T11:24:43;9.18;;;4.90;;
40983;SDS011;26714;51.332;12.406;2023-06-22T11:27:09;8.18;;;5.25;;
40983;SDS011;26714;51.332;12.406;2023-06-22T11:29:34;11.27;;;5.50;;
40983;SDS011;26714;51.332;12.406;2023-06-22T11:32:01;6.72;;;5.68;;
40983;SDS011;26714;51.332;12.406;2023-06-22T11:34:26;7.30;;;5.35;;
40983;SDS011;26714;51.332;12.406;2023-06-22T11:36:53;6.30;;;5.05;;
40983;SDS011;26714;51.332;12.406;2023-06-22T11:39:18;7.60;;;5.50;;
40983;SDS011;26714;51.332;12.406;2023-06-22T11:41:44;6.97;;;5.53;;
40983;SDS011;26714;51.332;12.406;2023-06-22T11:44:09;11.05;;;5.30;;
40983;SDS011;26714;51.332;12.406;2023-06-22T11:46:35;9.27;;;4.53;;
40983;SDS011;26714;51.332;12.406;2023-06-22T11:49:01;8.52;;;4.93;;
40983;SDS011;26714;51.332;12.406;2023-06-22T11:51:26;7.80;;;5.50;;
40983;SDS011;26714;51.332;12.406;2023-06-22T11:53:53;6.85;;;4.93;;
40983;SDS011;26714;51.332;12.406;2023-06-22T11:56:18;7.13;;;4.90;;
40983;SDS011;26714;51.332;12.406;2023-06-22T11:58:44;8.55;;;4.55;;
40983;SDS011;26714;51.332;12.406;2023-06-22T12:01:09;8.23;;;4.65;;
40983;SDS011;26714;51.332;12.406;2023-06-22T12:03:35;6.32;;;4.82;;
40983;SDS011;26714;51.332;12.406;2023-06-22T12:06:00;7.60;;;4.97;;
40983;SDS011;26714;51.332;12.406;2023-06-22T12:08:26;8.48;;;5.18;;
40983;SDS011;26714;51.332;12.406;2023-06-22T12:10:52;7.70;;;5.30;;
40983;SDS011;26714;51.332;12.406;2023-06-22T12:13:19;7.50;;;5.00;;
40983;SDS011;26714;51.332;12.406;2023-06-22T12:15:44;7.13;;;5.07;;
40983;SDS011;26714;51.332;12.406;2023-06-22T12:18:10;7.20;;;5.35;;
40983;SDS011;26714;51.332;12.406;2023-06-22T12:20:36;9.18;;;4.90;;
40983;SDS011;26714;51.332;12.406;2023-06-22T12:23:01;7.70;;;4.53;;
40983;SDS011;26714;51.332;12.406;2023-06-22T12:25:27;8.43;;;4.70;;
40983;SDS011;26714;51.332;12.406;2023-06-22T12:27:52;7.97;;;5.05;;
40983;SDS011;26714;51.332;12.406;2023-06-22T12:30:19;11.85;;;5.18;;
40983;SDS011;26714;51.332;12.406;2023-06-22T12:32:44;9.02;;;4.70;;
40983;SDS011;26714;51.332;12.406;2023-06-22T12:35:10;10.13;;;5.32;;
40983;SDS011;26714;51.332;12.406;2023-06-22T12:37:41;7.97;;;4.60;;
40983;SDS011;26714;51.332;12.406;2023-06-22T12:40:08;8.98;;;4.57;;
40983;SDS011;26714;51.332;12.406;2023-06-22T12:42:34;7.20;;;5.03;;
40983;SDS011;26714;51.332;12.406;2023-06-22T12:44:59;7.63;;;5.07;;
40983;SDS011;26714;51.332;12.406;2023-06-22T12:47:25;10.60;;;4.95;;
40983;SDS011;26714;51.332;12.406;2023-06-22T12:49:50;8.77;;;5.18;;
40983;SDS011;26714;51.332;12.406;2023-06-22T12:52:16;9.15;;;5.05;;
40983;SDS011;26714;51.332;12.406;2023-06-22T12:54:41;6.45;;;4.95;;
40983;SDS011;26714;51.332;12.406;2023-06-22T12:57:07;9.85;;;5.05;;
40983;SDS011;26714;51.332;12.406;2023-06-22T12:59:32;6.45;;;5.07;;
40983;SDS011;26714;51.332;12.406;2023-06-22T13:01:58;8.55;;;5.53;;
40983;SDS011;26714;51.332;12.406;2023-06-22T13:04:23;9.48;;;5.53;;
40983;SDS011;26714;51.332;12.406;2023-06-22T13:06:49;6.60;;;4.88;;
40983;SDS011;26714;51.332;12.406;2023-06-22T13:09:15;7.68;;;5.20;;
40983;SDS011;26714;51.332;12.406;2023-06-22T13:11:41;8.57;;;5.30;;
40983;SDS011;26714;51.332;12.406;2023-06-22T13:14:06;8.00;;;5.22;;
40983;SDS011;26714;51.332;12.406;2023-06-22T13:16:32;9.52;;;5.25;;
40983;SDS011;26714;51.332;12.406;2023-06-22T13:18:58;9.68;;;5.57;;
40983;SDS011;26714;51.332;12.406;2023-06-22T13:21:24;6.40;;;5.05;;
40983;SDS011;26714;51.332;12.406;2023-06-22T13:23:49;10.48;;;5.30;;
40983;SDS011;26714;51.332;12.406;2023-06-22T13:26:15;6.40;;;4.43;;
40983;SDS011;26714;51.332;12.406;2023-06-22T13:28:40;7.82;;;5.18;;
40983;SDS011;26714;51.332;12.406;2023-06-22T13:31:06;8.07;;;5.70;;
40983;SDS011;26714;51.332;12.406;2023-06-22T13:33:31;12.45;;;4.97;;
40983;SDS011;26714;51.332;12.406;2023-06-22T13:35:57;12.43;;;4.90;;
40983;SDS011;26714;51.332;12.406;2023-06-22T13:38:22;8.05;;;5.85;;
40983;SDS011;26714;51.332;12.406;2023-06-22T13:40:48;9.80;;;5.20;;
40983;SDS011;26714;51.332;12.406;2023-06-22T13:43:14;7.35;;;5.40;;
40983;SDS011;26714;51.332;12.406;2023-06-22T13:45:41;6.93;;;5.33;;
40983;SDS011;26714;51.332;12.406;2023-06-22T13:48:06;9.63;;;5.72;;
40983;SDS011;26714;51.332;12.406;2023-06-22T13:50:32;8.75;;;5.20;;
40983;SDS011;26714;51.332;12.406;2023-06-22T13:52:58;7.28;;;5.13;;
40983;SDS011;26714;51.332;12.406;2023-06-22T13:55:23;8.77;;;5.18;;
40983;SDS011;26714;51.332;12.406;2023-06-22T13:57:49;7.38;;;5.78;;
40983;SDS011;26714;51.332;12.406;2023-06-22T14:00:15;7.28;;;4.90;;
40983;SDS011;26714;51.332;12.406;2023-06-22T14:02:41;6.72;;;5.25;;
40983;SDS011;26714;51.332;12.406;2023-06-22T14:05:07;8.82;;;5.13;;
40983;SDS011;26714;51.332;12.406;2023-06-22T14:07:33;8.52;;;4.93;;
40983;SDS011;26714;51.332;12.406;2023-06-22T14:09:59;7.68;;;5.53;;
40983;SDS011;26714;51.332;12.406;2023-06-22T14:12:25;6.40;;;5.03;;
40983;SDS011;26714;51.332;12.406;2023-06-22T14:14:53;8.00;;;4.90;;
40983;SDS011;26714;51.332;12.406;2023-06-22T14:17:19;9.13;;;5.82;;
40983;SDS011;26714;51.332;12.406;2023-06-22T14:19:49;8.55;;;5.07;;
40983;SDS011;26714;51.332;12.406;2023-06-22T14:22:15;6.95;;;5.35;;
40983;SDS011;26714;51.332;12.406;2023-06-22T14:24:40;6.80;;;5.18;;
40983;SDS011;26714;51.332;12.406;2023-06-22T14:27:05;6.88;;;5.30;;